Aviation Digital Data Service (ADDS)

Output produced by METARs form (1723 UTC 24 June 2019)
found at http://www.aviationweather.gov/metar/data/
 
Forecast for: VTPM (MAE SOT/TAK , TH)
Text: TAF VTPM 241100Z 2412/2512 24008KT 9999 BKN025
Forecast period: 1200 UTC 24 June 2019 to 1200 UTC 25 June 2019
Forecast type: FROM: standard forecast or significant change
Winds: from the WSW (240 degrees) at 9 MPH (8 knots; 4.1 m/s)
Visibility: 6 or more miles 10+ km)
Ceiling: 2500 feet AGL
Clouds: broken clouds at 2500 feet AGL
Weather: no significant weather forecast for this period
Text: TEMPO 2412/2415 VRB15G25KT 5000 TSRA FEW020CB BKN025
Forecast period: 1200 to 1500 UTC 24 June 2019
Forecast type: TEMPORARY: The following changes expected for less than half the time period
Winds: variable direction winds at 17 MPH (15 knots; 7.7 m/s)
gusting to 29 MPH (25 knots; 12.9 m/s)
Visibility: 3 miles (5 km)
Ceiling: 2500 feet AGL
Clouds: few clouds at 2000 feet AGL
broken clouds at 2500 feet AGL
Weather: TSRA  (rain associated with thunderstorm(s))